sensor_id;sensor_type;location;lat;lon;timestamp;pressure;altitude;pressure_sealevel;temperature;humidity
33185;BME280;19550;42.872;25.494;2023-08-07T00:01:37;95678.88;;;18.51;100.00
33185;BME280;19550;42.872;25.494;2023-08-07T00:04:04;95690.47;;;18.46;100.00
33185;BME280;19550;42.872;25.494;2023-08-07T00:06:31;95695.28;;;18.46;100.00
33185;BME280;19550;42.872;25.494;2023-08-07T00:08:58;95697.72;;;18.51;100.00
33185;BME280;19550;42.872;25.494;2023-08-07T00:11:24;95694.06;;;18.47;100.00
33185;BME280;19550;42.872;25.494;2023-08-07T00:13:53;95705.25;;;18.40;100.00
33185;BME280;19550;42.872;25.494;2023-08-07T00:16:21;95700.81;;;18.39;100.00
33185;BME280;19550;42.872;25.494;2023-08-07T00:18:48;95702.38;;;18.33;100.00
33185;BME280;19550;42.872;25.494;2023-08-07T00:21:15;95706.88;;;18.44;100.00
33185;BME280;19550;42.872;25.494;2023-08-07T00:23:41;95720.78;;;18.30;100.00
33185;BME280;19550;42.872;25.494;2023-08-07T00:26:08;95715.22;;;18.34;100.00
33185;BME280;19550;42.872;25.494;2023-08-07T00:28:35;95713.09;;;18.23;100.00
33185;BME280;19550;42.872;25.494;2023-08-07T00:31:02;95708.41;;;18.35;100.00
33185;BME280;19550;42.872;25.494;2023-08-07T00:33:30;95712.38;;;18.30;100.00
33185;BME280;19550;42.872;25.494;2023-08-07T00:35:57;95715.47;;;18.18;100.00
33185;BME280;19550;42.872;25.494;2023-08-07T00:38:24;95718.91;;;18.01;100.00
33185;BME280;19550;42.872;25.494;2023-08-07T00:40:51;95714.03;;;17.94;100.00
33185;BME280;19550;42.872;25.494;2023-08-07T00:43:17;95717.50;;;17.80;100.00
33185;BME280;19550;42.872;25.494;2023-08-07T00:45:46;95715.91;;;17.83;100.00
33185;BME280;19550;42.872;25.494;2023-08-07T00:48:14;95715.09;;;17.82;100.00
33185;BME280;19550;42.872;25.494;2023-08-07T00:50:44;95716.63;;;17.76;100.00
33185;BME280;19550;42.872;25.494;2023-08-07T00:53:12;95720.13;;;17.66;100.00
33185;BME280;19550;42.872;25.494;2023-08-07T00:55:39;95729.31;;;17.63;100.00
33185;BME280;19550;42.872;25.494;2023-08-07T00:58:06;95728.69;;;17.47;100.00
33185;BME280;19550;42.872;25.494;2023-08-07T01:00:34;95740.78;;;17.55;100.00
33185;BME280;19550;42.872;25.494;2023-08-07T01:03:04;95740.75;;;17.51;100.00
33185;BME280;19550;42.872;25.494;2023-08-07T01:05:31;95737.81;;;17.40;100.00
33185;BME280;19550;42.872;25.494;2023-08-07T01:08:00;95746.22;;;17.40;100.00
33185;BME280;19550;42.872;25.494;2023-08-07T01:10:35;95733.00;;;17.41;100.00
33185;BME280;19550;42.872;25.494;2023-08-07T01:13:08;95733.13;;;17.52;100.00
33185;BME280;19550;42.872;25.494;2023-08-07T01:15:38;95737.13;;;17.51;100.00
33185;BME280;19550;42.872;25.494;2023-08-07T01:18:07;95739.94;;;17.51;100.00
33185;BME280;19550;42.872;25.494;2023-08-07T01:20:34;95752.38;;;17.53;100.00
33185;BME280;19550;42.872;25.494;2023-08-07T01:23:03;95747.19;;;17.55;100.00
33185;BME280;19550;42.872;25.494;2023-08-07T01:25:30;95746.78;;;17.53;100.00
33185;BME280;19550;42.872;25.494;2023-08-07T01:28:02;95743.41;;;17.40;100.00
33185;BME280;19550;42.872;25.494;2023-08-07T01:30:33;95749.28;;;17.32;100.00
33185;BME280;19550;42.872;25.494;2023-08-07T01:33:09;95754.56;;;17.37;100.00
33185;BME280;19550;42.872;25.494;2023-08-07T01:35:41;95745.78;;;17.38;100.00
33185;BME280;19550;42.872;25.494;2023-08-07T01:38:11;95752.91;;;17.32;100.00
33185;BME280;19550;42.872;25.494;2023-08-07T01:40:39;95749.72;;;17.34;100.00
33185;BME280;19550;42.872;25.494;2023-08-07T01:43:07;95751.00;;;17.40;100.00
33185;BME280;19550;42.872;25.494;2023-08-07T01:45:34;95755.97;;;17.24;100.00
33185;BME280;19550;42.872;25.494;2023-08-07T01:48:01;95762.97;;;17.37;100.00
33185;BME280;19550;42.872;25.494;2023-08-07T01:50:28;95763.28;;;17.28;100.00
33185;BME280;19550;42.872;25.494;2023-08-07T01:52:55;95763.94;;;17.48;100.00
33185;BME280;19550;42.872;25.494;2023-08-07T01:55:24;95766.94;;;17.36;100.00
33185;BME280;19550;42.872;25.494;2023-08-07T01:57:50;95759.75;;;17.35;100.00
33185;BME280;19550;42.872;25.494;2023-08-07T02:00:18;95760.69;;;17.16;100.00
33185;BME280;19550;42.872;25.494;2023-08-07T02:02:44;95760.75;;;16.93;100.00
33185;BME280;19550;42.872;25.494;2023-08-07T02:05:12;95760.22;;;16.84;100.00
33185;BME280;19550;42.872;25.494;2023-08-07T02:07:39;95758.69;;;16.90;100.00
33185;BME280;19550;42.872;25.494;2023-08-07T02:10:06;95770.19;;;16.82;100.00
33185;BME280;19550;42.872;25.494;2023-08-07T02:12:35;95776.91;;;16.77;100.00
33185;BME280;19550;42.872;25.494;2023-08-07T02:15:02;95771.25;;;16.74;100.00
33185;BME280;19550;42.872;25.494;2023-08-07T02:17:29;95778.75;;;16.69;100.00
33185;BME280;19550;42.872;25.494;2023-08-07T02:19:56;95786.69;;;16.64;100.00
33185;BME280;19550;42.872;25.494;2023-08-07T02:22:23;95777.28;;;16.53;100.00
33185;BME280;19550;42.872;25.494;2023-08-07T02:24:50;95789.69;;;16.55;100.00
33185;BME280;19550;42.872;25.494;2023-08-07T02:27:17;95788.91;;;16.55;100.00
33185;BME280;19550;42.872;25.494;2023-08-07T02:29:45;95777.88;;;16.43;100.00
33185;BME280;19550;42.872;25.494;2023-08-07T02:32:12;95779.50;;;16.44;100.00
33185;BME280;19550;42.872;25.494;2023-08-07T02:34:39;95786.41;;;16.50;100.00
33185;BME280;19550;42.872;25.494;2023-08-07T02:37:06;95783.38;;;16.58;100.00
33185;BME280;19550;42.872;25.494;2023-08-07T02:39:33;95785.31;;;16.54;100.00
33185;BME280;19550;42.872;25.494;2023-08-07T02:41:59;95774.97;;;16.58;100.00
33185;BME280;19550;42.872;25.494;2023-08-07T02:44:26;95776.03;;;16.50;100.00
33185;BME280;19550;42.872;25.494;2023-08-07T02:46:54;95786.13;;;16.55;100.00
33185;BME280;19550;42.872;25.494;2023-08-07T02:49:21;95783.50;;;16.65;100.00
33185;BME280;19550;42.872;25.494;2023-08-07T02:51:48;95783.31;;;16.55;100.00
33185;BME280;19550;42.872;25.494;2023-08-07T02:54:15;95794.75;;;16.69;100.00
33185;BME280;19550;42.872;25.494;2023-08-07T02:56:42;95793.44;;;16.40;100.00
33185;BME280;19550;42.872;25.494;2023-08-07T02:59:08;95801.13;;;16.24;100.00
33185;BME280;19550;42.872;25.494;2023-08-07T03:01:35;95805.50;;;16.02;100.00
33185;BME280;19550;42.872;25.494;2023-08-07T03:04:03;95805.50;;;16.02;100.00
33185;BME280;19550;42.872;25.494;2023-08-07T03:06:30;95807.66;;;16.09;100.00
33185;BME280;19550;42.872;25.494;2023-08-07T03:08:57;95810.16;;;16.14;100.00
33185;BME280;19550;42.872;25.494;2023-08-07T03:11:24;95821.03;;;16.19;100.00
33185;BME280;19550;42.872;25.494;2023-08-07T03:13:51;95823.03;;;16.41;100.00
33185;BME280;19550;42.872;25.494;2023-08-07T03:16:18;95819.84;;;16.43;100.00
33185;BME280;19550;42.872;25.494;2023-08-07T03:18:44;95824.34;;;16.47;100.00
33185;BME280;19550;42.872;25.494;2023-08-07T03:21:13;95830.28;;;16.65;100.00
33185;BME280;19550;42.872;25.494;2023-08-07T03:23:40;95830.63;;;16.63;100.00
33185;BME280;19550;42.872;25.494;2023-08-07T03:26:08;95832.06;;;16.54;100.00
33185;BME280;19550;42.872;25.494;2023-08-07T03:28:36;95830.84;;;16.32;100.00
33185;BME280;19550;42.872;25.494;2023-08-07T03:31:03;95834.09;;;16.34;100.00
33185;BME280;19550;42.872;25.494;2023-08-07T03:33:30;95827.13;;;16.24;100.00
33185;BME280;19550;42.872;25.494;2023-08-07T03:35:57;95829.19;;;16.27;100.00
33185;BME280;19550;42.872;25.494;2023-08-07T03:38:25;95830.28;;;16.23;100.00
33185;BME280;19550;42.872;25.494;2023-08-07T03:40:52;95838.47;;;16.12;100.00
33185;BME280;19550;42.872;25.494;2023-08-07T03:43:19;95836.22;;;15.99;100.00
33185;BME280;19550;42.872;25.494;2023-08-07T03:45:45;95842.00;;;16.09;100.00
33185;BME280;19550;42.872;25.494;2023-08-07T03:48:12;95847.31;;;16.14;100.00
33185;BME280;19550;42.872;25.494;2023-08-07T03:50:42;95849.81;;;16.00;100.00
33185;BME280;19550;42.872;25.494;2023-08-07T03:53:09;95845.03;;;16.01;100.00
33185;BME280;19550;42.872;25.494;2023-08-07T03:55:37;95838.78;;;16.07;100.00
33185;BME280;19550;42.872;25.494;2023-08-07T03:58:04;95837.50;;;16.24;100.00
33185;BME280;19550;42.872;25.494;2023-08-07T04:00:31;95834.16;;;16.38;100.00
33185;BME280;19550;42.872;25.494;2023-08-07T04:02:58;95831.56;;;16.48;100.00
33185;BME280;19550;42.872;25.494;2023-08-07T04:05:25;95836.88;;;16.57;100.00
33185;BME280;19550;42.872;25.494;2023-08-07T04:07:52;95849.81;;;16.61;100.00
33185;BME280;19550;42.872;25.494;2023-08-07T04:10:18;95848.00;;;16.73;100.00
33185;BME280;19550;42.872;25.494;2023-08-07T04:12:47;95858.03;;;16.74;100.00
33185;BME280;19550;42.872;25.494;2023-08-07T04:15:13;95843.75;;;16.82;100.00
33185;BME280;19550;42.872;25.494;2023-08-07T04:17:40;95848.28;;;16.90;100.00
33185;BME280;19550;42.872;25.494;2023-08-07T04:20:08;95847.44;;;16.86;100.00
33185;BME280;19550;42.872;25.494;2023-08-07T04:22:35;95861.56;;;16.93;100.00
33185;BME280;19550;42.872;25.494;2023-08-07T04:25:02;95859.28;;;17.02;100.00
33185;BME280;19550;42.872;25.494;2023-08-07T04:27:29;95846.56;;;17.08;100.00
33185;BME280;19550;42.872;25.494;2023-08-07T04:29:57;95857.25;;;17.26;100.00
33185;BME280;19550;42.872;25.494;2023-08-07T04:32:24;95858.31;;;17.44;100.00
33185;BME280;19550;42.872;25.494;2023-08-07T04:34:51;95857.34;;;17.59;100.00
33185;BME280;19550;42.872;25.494;2023-08-07T04:37:18;95860.78;;;17.75;100.00
33185;BME280;19550;42.872;25.494;2023-08-07T04:39:45;95868.19;;;17.87;100.00
33185;BME280;19550;42.872;25.494;2023-08-07T04:42:12;95870.91;;;17.83;100.00
33185;BME280;19550;42.872;25.494;2023-08-07T04:44:38;95878.34;;;17.99;100.00
33185;BME280;19550;42.872;25.494;2023-08-07T04:47:07;95882.41;;;18.05;100.00
33185;BME280;19550;42.872;25.494;2023-08-07T04:49:34;95886.50;;;18.11;100.00
33185;BME280;19550;42.872;25.494;2023-08-07T04:52:00;95878.97;;;18.18;100.00
33185;BME280;19550;42.872;25.494;2023-08-07T04:54:27;95878.59;;;18.20;100.00
33185;BME280;19550;42.872;25.494;2023-08-07T04:56:54;95889.47;;;18.25;100.00
33185;BME280;19550;42.872;25.494;2023-08-07T04:59:21;95889.03;;;18.23;100.00
33185;BME280;19550;42.872;25.494;2023-08-07T05:01:48;95886.75;;;18.32;100.00
33185;BME280;19550;42.872;25.494;2023-08-07T05:04:16;95882.16;;;18.50;100.00
33185;BME280;19550;42.872;25.494;2023-08-07T05:06:43;95891.09;;;18.59;100.00
33185;BME280;19550;42.872;25.494;2023-08-07T05:09:10;95901.69;;;18.77;100.00
33185;BME280;19550;42.872;25.494;2023-08-07T05:11:37;95907.44;;;18.87;100.00
33185;BME280;19550;42.872;25.494;2023-08-07T05:14:04;95907.97;;;19.00;100.00
33185;BME280;19550;42.872;25.494;2023-08-07T05:16:31;95907.53;;;18.98;100.00
33185;BME280;19550;42.872;25.494;2023-08-07T05:18:58;95911.16;;;18.98;99.89
33185;BME280;19550;42.872;25.494;2023-08-07T05:21:28;95910.31;;;18.94;100.00
33185;BME280;19550;42.872;25.494;2023-08-07T05:23:55;95922.91;;;19.11;100.00
33185;BME280;19550;42.872;25.494;2023-08-07T05:26:22;95916.16;;;19.19;96.36
33185;BME280;19550;42.872;25.494;2023-08-07T05:28:49;95913.03;;;19.28;99.74
33185;BME280;19550;42.872;25.494;2023-08-07T05:31:16;95922.84;;;19.48;97.88
33185;BME280;19550;42.872;25.494;2023-08-07T05:33:42;95917.69;;;19.54;94.98
33185;BME280;19550;42.872;25.494;2023-08-07T05:36:09;95924.56;;;19.63;94.99
33185;BME280;19550;42.872;25.494;2023-08-07T05:38:37;95924.09;;;19.54;94.33
33185;BME280;19550;42.872;25.494;2023-08-07T05:41:04;95934.63;;;19.68;97.87
33185;BME280;19550;42.872;25.494;2023-08-07T05:43:31;95941.41;;;19.60;92.61
33185;BME280;19550;42.872;25.494;2023-08-07T05:45:58;95935.91;;;19.74;95.64
33185;BME280;19550;42.872;25.494;2023-08-07T05:48:25;95942.22;;;19.60;91.50
33185;BME280;19550;42.872;25.494;2023-08-07T05:50:52;95937.06;;;19.69;94.63
33185;BME280;19550;42.872;25.494;2023-08-07T05:53:19;95935.69;;;19.49;91.71
33185;BME280;19550;42.872;25.494;2023-08-07T05:55:47;95939.00;;;19.62;91.37
33185;BME280;19550;42.872;25.494;2023-08-07T05:58:14;95936.72;;;19.81;92.15
33185;BME280;19550;42.872;25.494;2023-08-07T06:00:41;95931.66;;;20.08;92.88
33185;BME280;19550;42.872;25.494;2023-08-07T06:03:08;95933.75;;;20.18;88.97
33185;BME280;19550;42.872;25.494;2023-08-07T06:05:35;95936.97;;;20.20;87.06
33185;BME280;19550;42.872;25.494;2023-08-07T06:08:03;95930.94;;;20.18;88.99
33185;BME280;19550;42.872;25.494;2023-08-07T06:10:30;95932.50;;;20.12;87.04
33185;BME280;19550;42.872;25.494;2023-08-07T06:12:58;95928.53;;;20.24;85.27
33185;BME280;19550;42.872;25.494;2023-08-07T06:15:25;95937.03;;;20.28;87.12
33185;BME280;19550;42.872;25.494;2023-08-07T06:17:52;95939.13;;;20.45;85.55
33185;BME280;19550;42.872;25.494;2023-08-07T06:20:18;95943.44;;;20.24;85.06
33185;BME280;19550;42.872;25.494;2023-08-07T06:22:46;95952.81;;;20.46;86.31
33185;BME280;19550;42.872;25.494;2023-08-07T06:25:12;95942.38;;;20.61;86.46
33185;BME280;19550;42.872;25.494;2023-08-07T06:27:39;95942.84;;;20.67;85.11
33185;BME280;19550;42.872;25.494;2023-08-07T06:30:09;95948.84;;;20.61;85.14
33185;BME280;19550;42.872;25.494;2023-08-07T06:32:36;95939.22;;;20.70;84.88
33185;BME280;19550;42.872;25.494;2023-08-07T06:35:03;95958.53;;;20.75;84.88
33185;BME280;19550;42.872;25.494;2023-08-07T06:37:31;95949.31;;;20.85;83.72
33185;BME280;19550;42.872;25.494;2023-08-07T06:39:57;95949.34;;;20.95;84.78
33185;BME280;19550;42.872;25.494;2023-08-07T06:42:24;95955.00;;;21.06;84.20
33185;BME280;19550;42.872;25.494;2023-08-07T06:44:51;95953.03;;;21.14;81.93
33185;BME280;19550;42.872;25.494;2023-08-07T06:47:19;95962.31;;;21.28;82.04
33185;BME280;19550;42.872;25.494;2023-08-07T06:49:46;95953.88;;;21.39;81.47
33185;BME280;19550;42.872;25.494;2023-08-07T06:52:13;95949.03;;;21.50;80.31
33185;BME280;19550;42.872;25.494;2023-08-07T06:54:40;95962.34;;;21.46;78.75
33185;BME280;19550;42.872;25.494;2023-08-07T06:57:06;95964.75;;;21.48;79.67
33185;BME280;19550;42.872;25.494;2023-08-07T06:59:33;95959.91;;;21.55;79.11
33185;BME280;19550;42.872;25.494;2023-08-07T07:02:00;95959.94;;;21.80;79.63
33185;BME280;19550;42.872;25.494;2023-08-07T07:04:29;95965.16;;;22.10;78.66
33185;BME280;19550;42.872;25.494;2023-08-07T07:06:56;95961.91;;;22.08;77.80
33185;BME280;19550;42.872;25.494;2023-08-07T07:09:23;95964.25;;;22.41;78.00
33185;BME280;19550;42.872;25.494;2023-08-07T07:11:49;95957.38;;;22.53;75.08
33185;BME280;19550;42.872;25.494;2023-08-07T07:14:16;95958.50;;;22.77;72.73
33185;BME280;19550;42.872;25.494;2023-08-07T07:16:43;95963.75;;;22.71;70.58
33185;BME280;19550;42.872;25.494;2023-08-07T07:19:10;95968.19;;;22.76;69.99
33185;BME280;19550;42.872;25.494;2023-08-07T07:21:38;95967.28;;;22.96;70.65
33185;BME280;19550;42.872;25.494;2023-08-07T07:24:05;95964.28;;;23.28;67.32
33185;BME280;19550;42.872;25.494;2023-08-07T07:26:32;95962.56;;;23.45;66.07
33185;BME280;19550;42.872;25.494;2023-08-07T07:28:59;95974.16;;;23.61;64.87
33185;BME280;19550;42.872;25.494;2023-08-07T07:31:26;95971.38;;;23.58;64.87
33185;BME280;19550;42.872;25.494;2023-08-07T07:33:53;95980.69;;;23.58;62.84
33185;BME280;19550;42.872;25.494;2023-08-07T07:36:20;95979.50;;;23.52;64.16
33185;BME280;19550;42.872;25.494;2023-08-07T07:38:48;95978.31;;;23.43;63.72
33185;BME280;19550;42.872;25.494;2023-08-07T07:41:15;95973.16;;;23.30;66.91
33185;BME280;19550;42.872;25.494;2023-08-07T07:43:43;95973.16;;;23.30;65.49
33185;BME280;19550;42.872;25.494;2023-08-07T07:46:10;95980.97;;;23.09;66.20
33185;BME280;19550;42.872;25.494;2023-08-07T07:48:37;95985.41;;;23.13;67.05
33185;BME280;19550;42.872;25.494;2023-08-07T07:51:04;95980.75;;;23.41;66.47
33185;BME280;19550;42.872;25.494;2023-08-07T07:53:31;95986.81;;;23.43;64.32
33185;BME280;19550;42.872;25.494;2023-08-07T07:55:59;95991.25;;;23.47;63.76
33185;BME280;19550;42.872;25.494;2023-08-07T07:58:26;95987.50;;;23.61;64.50
33185;BME280;19550;42.872;25.494;2023-08-07T08:00:53;95986.19;;;23.76;61.87
33185;BME280;19550;42.872;25.494;2023-08-07T08:03:20;95989.38;;;23.85;60.70
33185;BME280;19550;42.872;25.494;2023-08-07T08:05:50;95980.81;;;23.92;63.36
33185;BME280;19550;42.872;25.494;2023-08-07T08:08:17;95992.06;;;23.99;61.76
33185;BME280;19550;42.872;25.494;2023-08-07T08:10:44;95992.94;;;23.93;61.71
33185;BME280;19550;42.872;25.494;2023-08-07T08:13:13;96001.50;;;23.86;57.40
33185;BME280;19550;42.872;25.494;2023-08-07T08:15:41;95992.53;;;23.91;57.93
33185;BME280;19550;42.872;25.494;2023-08-07T08:18:07;95991.63;;;24.01;57.21
33185;BME280;19550;42.872;25.494;2023-08-07T08:20:34;95987.84;;;24.22;57.35
33185;BME280;19550;42.872;25.494;2023-08-07T08:23:01;95981.34;;;24.21;55.50
33185;BME280;19550;42.872;25.494;2023-08-07T08:25:28;95986.59;;;24.60;57.87
33185;BME280;19550;42.872;25.494;2023-08-07T08:27:55;95979.22;;;24.70;55.35
33185;BME280;19550;42.872;25.494;2023-08-07T08:30:23;95997.25;;;24.49;53.72
33185;BME280;19550;42.872;25.494;2023-08-07T08:32:50;96000.28;;;24.31;52.69
33185;BME280;19550;42.872;25.494;2023-08-07T08:35:17;95991.25;;;24.43;54.07
33185;BME280;19550;42.872;25.494;2023-08-07T08:37:43;95996.31;;;24.63;55.70
33185;BME280;19550;42.872;25.494;2023-08-07T08:40:11;95993.53;;;24.59;54.50
33185;BME280;19550;42.872;25.494;2023-08-07T08:42:43;96002.53;;;24.50;55.37
33185;BME280;19550;42.872;25.494;2023-08-07T08:45:12;95997.81;;;24.33;55.90
33185;BME280;19550;42.872;25.494;2023-08-07T08:47:41;95999.56;;;24.61;56.19
33185;BME280;19550;42.872;25.494;2023-08-07T08:50:10;95991.13;;;24.88;55.83
33185;BME280;19550;42.872;25.494;2023-08-07T08:52:40;95991.66;;;25.13;54.86
33185;BME280;19550;42.872;25.494;2023-08-07T08:55:07;95995.69;;;25.16;55.13
33185;BME280;19550;42.872;25.494;2023-08-07T08:57:34;96005.22;;;24.99;54.04
33185;BME280;19550;42.872;25.494;2023-08-07T09:00:02;96002.75;;;25.01;54.41
33185;BME280;19550;42.872;25.494;2023-08-07T09:02:38;96012.03;;;25.05;55.74
33185;BME280;19550;42.872;25.494;2023-08-07T09:05:07;96013.50;;;24.82;54.79
33185;BME280;19550;42.872;25.494;2023-08-07T09:07:35;96004.03;;;25.26;55.29
33185;BME280;19550;42.872;25.494;2023-08-07T09:10:02;96004.94;;;25.50;56.25
33185;BME280;19550;42.872;25.494;2023-08-07T09:12:32;95995.66;;;25.19;51.55
33185;BME280;19550;42.872;25.494;2023-08-07T09:14:59;96005.44;;;25.42;50.94
33185;BME280;19550;42.872;25.494;2023-08-07T09:17:28;96000.16;;;25.44;51.50
33185;BME280;19550;42.872;25.494;2023-08-07T09:19:56;96000.38;;;25.56;52.43
33185;BME280;19550;42.872;25.494;2023-08-07T09:22:24;95992.06;;;25.73;51.44
33185;BME280;19550;42.872;25.494;2023-08-07T09:24:51;95993.00;;;25.62;48.73
33185;BME280;19550;42.872;25.494;2023-08-07T09:27:18;95997.16;;;25.54;50.21
33185;BME280;19550;42.872;25.494;2023-08-07T09:29:46;95996.41;;;26.04;52.10
33185;BME280;19550;42.872;25.494;2023-08-07T09:32:13;95998.50;;;26.23;48.25
33185;BME280;19550;42.872;25.494;2023-08-07T09:34:40;95990.34;;;25.79;47.72
33185;BME280;19550;42.872;25.494;2023-08-07T09:37:07;95994.97;;;25.92;48.04
33185;BME280;19550;42.872;25.494;2023-08-07T09:39:37;96004.22;;;26.20;49.12
33185;BME280;19550;42.872;25.494;2023-08-07T09:42:04;95995.44;;;26.37;44.91
33185;BME280;19550;42.872;25.494;2023-08-07T09:44:35;96002.09;;;26.27;46.35
33185;BME280;19550;42.872;25.494;2023-08-07T09:47:11;95994.41;;;26.71;45.82
33185;BME280;19550;42.872;25.494;2023-08-07T09:49:39;96015.06;;;26.95;42.40
33185;BME280;19550;42.872;25.494;2023-08-07T09:52:07;96010.84;;;26.60;43.44
33185;BME280;19550;42.872;25.494;2023-08-07T09:54:34;96007.88;;;26.67;41.21
33185;BME280;19550;42.872;25.494;2023-08-07T09:57:03;96012.31;;;26.91;42.22
33185;BME280;19550;42.872;25.494;2023-08-07T09:59:31;96003.53;;;27.02;42.09
33185;BME280;19550;42.872;25.494;2023-08-07T10:01:59;96000.03;;;27.14;41.56
33185;BME280;19550;42.872;25.494;2023-08-07T10:04:28;95990.03;;;27.25;41.43
33185;BME280;19550;42.872;25.494;2023-08-07T10:06:55;96001.56;;;27.38;41.12
33185;BME280;19550;42.872;25.494;2023-08-07T10:09:22;95998.88;;;27.11;40.88
33185;BME280;19550;42.872;25.494;2023-08-07T10:11:50;95990.69;;;27.13;42.46
33185;BME280;19550;42.872;25.494;2023-08-07T10:14:18;95995.75;;;27.06;42.03
33185;BME280;19550;42.872;25.494;2023-08-07T10:16:45;95995.38;;;27.23;40.69
33185;BME280;19550;42.872;25.494;2023-08-07T10:19:12;95997.03;;;27.21;41.62
33185;BME280;19550;42.872;25.494;2023-08-07T10:21:39;95996.91;;;27.08;41.44
33185;BME280;19550;42.872;25.494;2023-08-07T10:24:08;95988.75;;;27.46;40.35
33185;BME280;19550;42.872;25.494;2023-08-07T10:26:39;95987.13;;;27.09;41.70
33185;BME280;19550;42.872;25.494;2023-08-07T10:29:11;95981.91;;;27.44;41.18
33185;BME280;19550;42.872;25.494;2023-08-07T10:31:42;95989.69;;;27.59;40.79
33185;BME280;19550;42.872;25.494;2023-08-07T10:34:10;95980.66;;;27.81;40.92
33185;BME280;19550;42.872;25.494;2023-08-07T10:36:37;95983.25;;;28.07;41.03
33185;BME280;19550;42.872;25.494;2023-08-07T10:39:06;95971.75;;;28.43;40.38
33185;BME280;19550;42.872;25.494;2023-08-07T10:41:38;95971.44;;;28.54;36.74
33185;BME280;19550;42.872;25.494;2023-08-07T10:44:17;95973.91;;;28.23;37.86
33185;BME280;19550;42.872;25.494;2023-08-07T10:46:49;95973.25;;;27.99;37.68
33185;BME280;19550;42.872;25.494;2023-08-07T10:49:33;95974.97;;;27.97;38.53
33185;BME280;19550;42.872;25.494;2023-08-07T10:52:07;95973.81;;;28.27;37.97
33185;BME280;19550;42.872;25.494;2023-08-07T10:54:39;95979.47;;;28.59;35.22
33185;BME280;19550;42.872;25.494;2023-08-07T10:57:10;95973.56;;;28.82;37.07
33185;BME280;19550;42.872;25.494;2023-08-07T10:59:38;95976.59;;;29.04;35.96
33185;BME280;19550;42.872;25.494;2023-08-07T11:02:08;95980.31;;;28.89;35.65
33185;BME280;19550;42.872;25.494;2023-08-07T11:04:38;95983.13;;;28.76;36.23
33185;BME280;19550;42.872;25.494;2023-08-07T11:07:05;95981.19;;;28.57;33.61
33185;BME280;19550;42.872;25.494;2023-08-07T11:09:33;95982.31;;;28.75;33.58
33185;BME280;19550;42.872;25.494;2023-08-07T11:12:00;95971.97;;;29.23;32.33
33185;BME280;19550;42.872;25.494;2023-08-07T11:14:27;95972.75;;;29.11;31.92
33185;BME280;19550;42.872;25.494;2023-08-07T11:16:55;95980.53;;;29.23;33.08
33185;BME280;19550;42.872;25.494;2023-08-07T11:19:23;95979.16;;;29.28;33.32
33185;BME280;19550;42.872;25.494;2023-08-07T11:21:51;95975.50;;;29.27;34.84
33185;BME280;19550;42.872;25.494;2023-08-07T11:24:19;95970.31;;;29.51;32.40
33185;BME280;19550;42.872;25.494;2023-08-07T11:26:46;95967.56;;;29.85;32.82
33185;BME280;19550;42.872;25.494;2023-08-07T11:29:16;95962.53;;;30.15;32.13
33185;BME280;19550;42.872;25.494;2023-08-07T11:31:43;95956.16;;;30.11;32.70
33185;BME280;19550;42.872;25.494;2023-08-07T11:34:10;95958.50;;;30.50;33.52
33185;BME280;19550;42.872;25.494;2023-08-07T11:36:43;95948.28;;;29.51;32.74
33185;BME280;19550;42.872;25.494;2023-08-07T11:39:10;95956.50;;;29.49;33.13
33185;BME280;19550;42.872;25.494;2023-08-07T11:41:37;95967.34;;;30.05;32.90
33185;BME280;19550;42.872;25.494;2023-08-07T11:44:04;95966.84;;;30.45;32.49
33185;BME280;19550;42.872;25.494;2023-08-07T11:46:35;95963.78;;;30.26;33.97
33185;BME280;19550;42.872;25.494;2023-08-07T11:49:05;95952.22;;;30.30;34.34
33185;BME280;19550;42.872;25.494;2023-08-07T11:51:33;95959.81;;;30.71;34.04
33185;BME280;19550;42.872;25.494;2023-08-07T11:54:02;95960.59;;;30.93;35.15
33185;BME280;19550;42.872;25.494;2023-08-07T11:56:29;95963.41;;;30.84;34.34
33185;BME280;19550;42.872;25.494;2023-08-07T11:58:57;95958.97;;;30.36;34.04
33185;BME280;19550;42.872;25.494;2023-08-07T12:01:25;95953.44;;;30.41;33.52
33185;BME280;19550;42.872;25.494;2023-08-07T12:03:55;95960.59;;;30.24;35.01
33185;BME280;19550;42.872;25.494;2023-08-07T12:06:23;95945.06;;;30.60;33.42
33185;BME280;19550;42.872;25.494;2023-08-07T12:08:54;95937.66;;;30.84;33.00
33185;BME280;19550;42.872;25.494;2023-08-07T12:11:23;95930.31;;;30.83;33.71
33185;BME280;19550;42.872;25.494;2023-08-07T12:13:51;95921.69;;;31.17;33.25
33185;BME280;19550;42.872;25.494;2023-08-07T12:16:18;95931.31;;;31.33;32.70
33185;BME280;19550;42.872;25.494;2023-08-07T12:18:46;95924.19;;;31.37;33.48
33185;BME280;19550;42.872;25.494;2023-08-07T12:21:14;95926.34;;;31.55;32.39
33185;BME280;19550;42.872;25.494;2023-08-07T12:23:41;95925.97;;;31.44;33.10
33185;BME280;19550;42.872;25.494;2023-08-07T12:26:08;95935.53;;;31.81;32.09
33185;BME280;19550;42.872;25.494;2023-08-07T12:28:36;95927.03;;;32.08;32.11
33185;BME280;19550;42.872;25.494;2023-08-07T12:31:03;95936.38;;;32.30;32.47
33185;BME280;19550;42.872;25.494;2023-08-07T12:33:32;95936.06;;;32.38;32.33
33185;BME280;19550;42.872;25.494;2023-08-07T12:36:00;95943.06;;;32.37;32.22
33185;BME280;19550;42.872;25.494;2023-08-07T12:38:27;95944.34;;;32.45;31.57
33185;BME280;19550;42.872;25.494;2023-08-07T12:40:54;95950.88;;;32.36;31.40
33185;BME280;19550;42.872;25.494;2023-08-07T12:43:21;95941.63;;;32.41;32.11
33185;BME280;19550;42.872;25.494;2023-08-07T12:45:49;95945.59;;;32.25;31.01
33185;BME280;19550;42.872;25.494;2023-08-07T12:48:18;95939.41;;;32.45;31.63